Kaltennordheim, Germany

8:23 AM CEST on July 24, 2016 (GMT +0200)
Wasungen | | Change Station

Elev 971 ft 50.66 °N, 10.36 °E | Updated 1 minute ago

Mostly Cloudy
Mostly Cloudy
64.2 °F
Feels Like 64.2 °F
N
0.6
Wind Variable Wind from East

Today
High -- | Low -- °F
--% Chance of Precip.
Yesterday
High -- | Low -- °F
Precip. -- in
Pressure 30.09 in
Visibility 6.2 miles
Clouds Few 1300 ft
Scattered Clouds 6500 ft
Mostly Cloudy 13000 ft
Dew Point 64 °F
Humidity 98%
Rainfall Not available.
Snow Depth Not available.
5:35 AM 9:15 PM
Waning Gibbous, 79% visible
METAR EDDE 240550Z 35003KT 310V030 9999 FEW013 SCT065 BKN130 20/16 Q1019 NOSIG
Pressure 30.09 in
Visibility 6.2 miles
Clouds Few 1300 ft
Scattered Clouds 6500 ft
Mostly Cloudy 13000 ft
Dew Point 64 °F
Humidity 98%
Rainfall Not available.
Snow Depth Not available.
5:35 AM 9:15 PM
Waning Gibbous, 79% visible
METAR EDDE 240550Z 35003KT 310V030 9999 FEW013 SCT065 BKN130 20/16 Q1019 NOSIG

10-Day Weather Forecast

×

Almanac

Astronomy

Jul. 24, 2016 Rise Set
Actual Time
Civil Twilight
Nautical Twilight
Astronomical Twilight
Moon
Length of Visible Light
Length of Day
Tomorrow will be .
, % of the Moon is Illuminated

Today's Extremes

Country Highs Country Lows

Community

WunderPhotos

Upload Photos

1,927,038 photos uploaded!

WunderBlog® & News

Nearby

Air Quality

  Air Quality AQ Index Pollutant
Not available.

Snow Depth

Station Depth Elevation

Earthquake Activity

City Distance Mag. Time & Date
Minimum magnitude displayed is 2.5.

Coastal Water Temperatures

Place Temperature

Stations

Nearby Weather Stations

Station Location Temp. Windchill Dew Point Humidity Wind Precip. Elev Updated Type